createdAt,value
2019-03-17T00:00:29.885Z,60.45
2019-03-17T00:03:03.546Z,62.52
2019-03-17T00:05:37.796Z,62.04
2019-03-17T00:08:11.270Z,53.35
2019-03-17T00:10:44.899Z,54.49
2019-03-17T00:13:18.659Z,56.97
2019-03-17T00:15:59.825Z,59.15
2019-03-17T00:18:38.492Z,60.59
2019-03-17T00:21:14.209Z,62.65
2019-03-17T00:23:47.680Z,62.73
2019-03-17T00:26:21.500Z,53.32
2019-03-17T00:28:56.042Z,50.49
2019-03-17T00:31:29.542Z,53.44
2019-03-17T00:34:03.253Z,56.04
2019-03-17T00:36:37.127Z,58.21
2019-03-17T00:39:10.668Z,59.60
2019-03-17T00:41:44.265Z,61.26
2019-03-17T00:44:17.816Z,62.76
2019-03-17T00:46:51.331Z,62.59
2019-03-17T00:49:26.173Z,53.04
2019-03-17T00:51:59.672Z,49.96
2019-03-17T00:54:33.229Z,52.78
2019-03-17T00:57:07.289Z,55.45
2019-03-17T00:59:40.920Z,57.61
2019-03-17T01:02:14.310Z,59.29
2019-03-17T01:04:56.114Z,61.07
2019-03-17T01:07:23.226Z,62.44
2019-03-17T01:09:57.605Z,62.38
2019-03-17T01:12:31.174Z,52.81
2019-03-17T01:15:04.705Z,50.05
2019-03-17T01:17:38.229Z,53.01
2019-03-17T01:20:11.706Z,55.45
2019-03-17T01:22:45.071Z,57.94
2019-03-17T01:25:18.415Z,59.53
2019-03-17T01:27:51.811Z,61.14
2019-03-17T01:30:25.222Z,62.57
2019-03-17T01:32:59.794Z,62.19
2019-03-17T01:35:33.130Z,52.01
2019-03-17T01:38:06.635Z,48.78
2019-03-17T01:40:40.170Z,52.02
2019-03-17T01:43:13.537Z,54.66
2019-03-17T01:45:48.249Z,56.90
2019-03-17T01:48:21.592Z,58.53
2019-03-17T01:50:55.131Z,60.01
2019-03-17T01:53:28.540Z,61.57
2019-03-17T01:56:01.936Z,62.25
2019-03-17T01:58:35.303Z,52.72
2019-03-17T02:01:11.758Z,48.98
2019-03-17T02:03:44.845Z,52.00
2019-03-17T02:06:19.247Z,54.69
2019-03-17T02:08:53.328Z,56.82
2019-03-17T02:11:26.902Z,58.48
2019-03-17T02:14:00.728Z,60.24
2019-03-17T02:16:34.246Z,61.50
2019-03-17T02:19:07.748Z,62.80
2019-03-17T02:21:41.350Z,62.57
2019-03-17T02:24:14.775Z,52.98
2019-03-17T02:26:48.283Z,49.94
2019-03-17T02:29:21.647Z,52.38
2019-03-17T02:31:55.052Z,54.97
2019-03-17T02:34:28.458Z,57.20
2019-03-17T02:37:02.028Z,59.14
2019-03-17T02:39:35.741Z,60.46
2019-03-17T02:42:09.290Z,61.84
2019-03-17T02:44:42.714Z,61.88
2019-03-17T02:47:16.431Z,51.01
2019-03-17T02:49:49.770Z,50.90
2019-03-17T02:52:23.489Z,53.62
2019-03-17T02:54:57.282Z,55.92
2019-03-17T02:57:30.651Z,57.90
2019-03-17T03:00:04.093Z,59.30
2019-03-17T03:02:38.561Z,60.76
2019-03-17T03:05:12.106Z,61.93
2019-03-17T03:07:45.515Z,62.49
2019-03-17T03:10:19.353Z,52.00
2019-03-17T03:12:52.805Z,48.84
2019-03-17T03:15:26.301Z,51.73
2019-03-17T03:17:59.879Z,54.29
2019-03-17T03:20:33.450Z,56.13
2019-03-17T03:23:08.413Z,57.92
2019-03-17T03:25:42.825Z,59.25
2019-03-17T03:28:16.305Z,60.35
2019-03-17T03:30:49.804Z,61.57
2019-03-17T03:33:23.368Z,62.84
2019-03-17T03:36:09.765Z,62.71
2019-03-17T03:38:31.997Z,52.48
2019-03-17T03:41:05.362Z,48.76
2019-03-17T03:43:39.371Z,51.62
2019-03-17T03:46:12.877Z,54.05
2019-03-17T03:48:46.343Z,55.93
2019-03-17T03:51:20.473Z,57.52
2019-03-17T03:53:55.110Z,58.91
2019-03-17T03:56:28.612Z,60.13
2019-03-17T03:59:02.067Z,61.25
2019-03-17T04:01:35.815Z,62.30
2019-03-17T04:04:09.225Z,62.65
2019-03-17T04:06:42.689Z,51.74
2019-03-17T04:09:16.072Z,48.25
2019-03-17T04:11:49.564Z,51.09
2019-03-17T04:14:23.051Z,53.51
2019-03-17T04:16:56.525Z,55.47
2019-03-17T04:19:29.918Z,56.83
2019-03-17T04:22:03.710Z,58.43
2019-03-17T04:24:37.243Z,59.57
2019-03-17T04:27:10.644Z,60.70
2019-03-17T04:29:44.479Z,61.74
2019-03-17T04:32:18.260Z,62.46
2019-03-17T04:34:51.734Z,52.44
2019-03-17T04:37:25.253Z,48.64
2019-03-17T04:39:58.752Z,51.16
2019-03-17T04:42:32.642Z,53.48
2019-03-17T04:45:06.663Z,55.43
2019-03-17T04:47:40.159Z,56.87
2019-03-17T04:50:13.592Z,58.38
2019-03-17T04:52:46.978Z,59.62
2019-03-17T04:55:20.406Z,60.65
2019-03-17T04:57:54.160Z,61.86
2019-03-17T05:00:28.688Z,62.47
2019-03-17T05:03:02.321Z,52.04
2019-03-17T05:05:35.829Z,48.55
2019-03-17T05:08:09.277Z,51.17
2019-03-17T05:10:42.701Z,53.60
2019-03-17T05:13:16.128Z,55.42
2019-03-17T05:15:49.563Z,56.72
2019-03-17T05:18:23.000Z,58.24
2019-03-17T05:20:56.470Z,59.15
2019-03-17T05:23:30.340Z,60.17
2019-03-17T05:26:03.894Z,61.14
2019-03-17T05:28:37.747Z,62.44
2019-03-17T05:31:11.278Z,62.62
2019-03-17T05:33:44.820Z,52.17
2019-03-17T05:36:18.246Z,48.89
2019-03-17T05:38:51.837Z,51.64
2019-03-17T05:41:25.689Z,54.11
2019-03-17T05:43:59.133Z,56.14
2019-03-17T05:46:32.678Z,57.83
2019-03-17T05:49:06.137Z,59.41
2019-03-17T05:51:41.029Z,60.58
2019-03-17T05:54:15.433Z,61.88
2019-03-17T05:56:48.925Z,62.39
2019-03-17T05:59:22.374Z,52.49
2019-03-17T06:02:22.811Z,49.25
2019-03-17T06:04:56.365Z,51.99
2019-03-17T06:07:29.947Z,54.45
2019-03-17T06:10:03.846Z,56.42
2019-03-17T06:12:37.820Z,58.24
2019-03-17T06:15:12.486Z,59.42
2019-03-17T06:17:45.980Z,60.87
2019-03-17T06:20:19.412Z,61.89
2019-03-17T06:22:52.888Z,61.41
2019-03-17T06:25:26.724Z,51.14
2019-03-17T06:28:00.257Z,50.43
2019-03-17T06:30:34.596Z,53.01
2019-03-17T06:33:08.659Z,55.16
2019-03-17T06:35:42.701Z,57.27
2019-03-17T06:38:16.589Z,58.83
2019-03-17T06:40:51.067Z,60.06
2019-03-17T06:43:25.415Z,61.49
2019-03-17T06:45:59.979Z,62.42
2019-03-17T06:52:27.911Z,50.52
2019-03-17T07:21:22.524Z,50.95
2019-03-17T07:23:57.791Z,53.64
2019-03-17T07:26:32.313Z,55.46
2019-03-17T07:29:07.861Z,57.32
2019-03-17T07:31:41.579Z,58.31
2019-03-17T07:34:15.055Z,59.59
2019-03-17T07:37:15.771Z,60.28
2019-03-17T07:40:23.712Z,60.54
2019-03-17T07:43:35.815Z,61.12
2019-03-17T07:46:41.842Z,58.36
2019-03-17T08:06:38.323Z,59.12
2019-03-17T08:09:44.509Z,59.11
2019-03-17T08:12:25.935Z,59.50
2019-03-17T08:15:16.558Z,60.57
2019-03-17T08:17:53.041Z,59.80
2019-03-17T08:20:27.133Z,60.08
2019-03-17T08:23:00.672Z,60.15
2019-03-17T08:25:35.397Z,60.04
2019-03-17T08:28:16.009Z,60.36
2019-03-17T08:30:53.441Z,61.09
2019-03-17T08:33:29.352Z,60.75
2019-03-17T08:36:03.697Z,60.26
2019-03-17T08:38:37.364Z,60.34
2019-03-17T08:49:18.989Z,58.18
2019-03-17T08:51:52.306Z,58.49
2019-03-17T08:54:31.119Z,58.37
2019-03-17T08:57:04.722Z,57.76
2019-03-17T08:59:38.079Z,56.85
2019-03-17T09:02:14.020Z,57.43
2019-03-17T09:04:58.528Z,56.95
2019-03-17T09:07:45.427Z,57.05
2019-03-17T09:10:22.658Z,57.00
2019-03-17T09:12:56.013Z,57.20
2019-03-17T09:15:38.321Z,56.51
2019-03-17T09:18:13.516Z,56.04
2019-03-17T09:20:47.180Z,54.72
2019-03-17T09:23:20.350Z,55.09
2019-03-17T09:25:53.524Z,54.30
2019-03-17T09:28:32.282Z,54.28
2019-03-17T09:31:07.609Z,53.93
2019-03-17T09:33:41.299Z,54.43
2019-03-17T09:36:14.651Z,53.38
2019-03-17T09:38:47.912Z,53.75
2019-03-17T09:41:30.948Z,54.11
2019-03-17T09:44:09.798Z,53.93
2019-03-17T09:46:44.188Z,53.83
2019-03-17T09:49:20.849Z,54.01
2019-03-17T09:51:57.757Z,53.70
2019-03-17T09:54:33.761Z,53.97
2019-03-17T09:57:07.044Z,52.13
2019-03-17T09:59:41.822Z,52.45
2019-03-17T10:02:15.310Z,51.07
2019-03-17T10:04:48.512Z,50.51
2019-03-17T10:07:22.727Z,49.97
2019-03-17T10:09:56.314Z,50.00
2019-03-17T10:12:29.665Z,51.27
2019-03-17T10:15:02.944Z,49.50
2019-03-17T10:17:36.474Z,49.28
2019-03-17T10:20:13.833Z,48.49
2019-03-17T10:22:46.972Z,49.00
2019-03-17T10:25:20.105Z,48.22
2019-03-17T10:27:53.229Z,48.64
2019-03-17T10:30:26.589Z,49.55
2019-03-17T10:33:01.446Z,49.47
2019-03-17T10:35:34.688Z,48.26
2019-03-17T10:38:07.893Z,47.81
2019-03-17T10:40:41.053Z,47.89
2019-03-17T10:43:15.230Z,47.91
2019-03-17T10:45:48.452Z,46.41
2019-03-17T10:48:21.689Z,45.97
2019-03-17T10:50:54.941Z,45.39
2019-03-17T10:53:28.185Z,44.63
2019-03-17T10:56:01.340Z,45.20
2019-03-17T10:58:34.426Z,44.47
2019-03-17T11:01:07.674Z,44.87
2019-03-17T11:03:41.919Z,44.60
2019-03-17T11:06:15.352Z,44.79
2019-03-17T11:08:49.023Z,45.05
2019-03-17T11:11:26.651Z,43.14
2019-03-17T11:17:21.696Z,43.02
2019-03-17T11:19:55.591Z,43.67
2019-03-17T11:22:31.615Z,43.43
2019-03-17T11:25:05.857Z,42.41
2019-03-17T11:27:41.819Z,43.10
2019-03-17T11:30:15.085Z,43.27
2019-03-17T11:32:48.208Z,42.66
2019-03-17T11:35:22.314Z,42.80
2019-03-17T11:37:55.335Z,42.97
2019-03-17T11:40:28.258Z,42.44
2019-03-17T11:43:01.770Z,43.07
2019-03-17T11:45:35.680Z,43.16
2019-03-17T11:48:08.691Z,43.05
2019-03-17T11:50:41.755Z,42.81
2019-03-17T11:53:16.275Z,42.32
2019-03-17T11:55:49.790Z,42.05
2019-03-17T11:58:26.575Z,42.22
2019-03-17T12:01:02.070Z,42.85
2019-03-17T12:03:35.273Z,41.93
2019-03-17T12:06:08.869Z,41.22
2019-03-17T12:08:43.015Z,39.85
2019-03-17T12:11:16.344Z,39.29
2019-03-17T12:13:49.527Z,40.09
2019-03-17T12:16:23.548Z,38.70
2019-03-17T12:18:57.630Z,40.48
2019-03-17T12:21:30.764Z,39.77
2019-03-17T12:24:04.035Z,39.37
2019-03-17T12:26:38.326Z,39.14
2019-03-17T12:29:11.824Z,39.84
2019-03-17T12:31:45.010Z,40.28
2019-03-17T12:34:27.797Z,40.07
2019-03-17T12:36:52.989Z,39.51
2019-03-17T12:39:26.081Z,39.23
2019-03-17T12:41:59.210Z,39.78
2019-03-17T12:44:33.723Z,39.94
2019-03-17T12:47:07.221Z,39.13
2019-03-17T12:49:40.335Z,38.47
2019-03-17T12:52:13.852Z,37.93
2019-03-17T12:54:47.953Z,39.03
2019-03-17T12:57:21.020Z,37.69
2019-03-17T12:59:54.204Z,38.73
2019-03-17T13:02:27.340Z,38.64
2019-03-17T13:05:00.471Z,38.41
2019-03-17T13:07:34.457Z,37.45
2019-03-17T13:10:15.715Z,38.72
2019-03-17T13:12:43.667Z,39.01
2019-03-17T13:15:16.730Z,38.26
2019-03-17T13:17:49.839Z,39.06
2019-03-17T13:20:22.875Z,39.09
2019-03-17T13:22:55.956Z,39.01
2019-03-17T13:25:29.066Z,38.91
2019-03-17T13:28:02.200Z,39.22
2019-03-17T13:30:35.358Z,38.20
2019-03-17T13:33:08.862Z,39.01
2019-03-17T13:35:41.949Z,39.54
2019-03-17T13:38:16.041Z,38.57
2019-03-17T13:40:49.286Z,38.19
2019-03-17T13:43:22.330Z,38.83
2019-03-17T13:45:55.490Z,39.22
2019-03-17T13:48:28.577Z,39.26
2019-03-17T13:51:02.342Z,39.87
2019-03-17T13:53:35.502Z,40.01
2019-03-17T13:56:08.978Z,39.70
2019-03-17T13:58:42.055Z,39.17
2019-03-17T14:01:15.066Z,40.43
2019-03-17T14:03:47.943Z,38.87
2019-03-17T14:06:20.790Z,39.85
2019-03-17T14:08:54.175Z,39.61
2019-03-17T14:11:27.083Z,39.24
2019-03-17T14:14:00.263Z,39.84
2019-03-17T14:16:36.338Z,40.39
2019-03-17T14:19:11.088Z,40.26
2019-03-17T14:21:44.250Z,40.44
2019-03-17T14:24:17.437Z,40.87
2019-03-17T14:26:50.672Z,40.38
2019-03-17T14:29:24.035Z,40.41
2019-03-17T14:31:57.122Z,41.06
2019-03-17T14:34:30.204Z,40.94
2019-03-17T14:37:03.320Z,41.08
2019-03-17T14:39:36.342Z,41.54
2019-03-17T14:42:09.447Z,41.67
2019-03-17T14:44:42.735Z,41.62
2019-03-17T14:47:15.918Z,41.72
2019-03-17T14:49:48.990Z,42.13
2019-03-17T14:52:22.128Z,42.29
2019-03-17T14:54:55.223Z,42.22
2019-03-17T14:57:28.360Z,42.31
2019-03-17T15:00:01.477Z,42.42
2019-03-17T15:02:34.697Z,42.39
2019-03-17T15:05:08.572Z,42.67
2019-03-17T15:07:41.763Z,42.76
2019-03-17T15:10:16.983Z,42.91
2019-03-17T15:12:51.595Z,43.12
2019-03-17T15:15:24.729Z,43.26
2019-03-17T15:17:57.768Z,43.66
2019-03-17T15:20:31.950Z,43.69
2019-03-17T15:23:05.550Z,43.67
2019-03-17T15:25:39.053Z,43.85
2019-03-17T15:28:23.563Z,44.12
2019-03-17T15:31:10.973Z,44.27
2019-03-17T15:33:37.233Z,44.72
2019-03-17T15:36:11.423Z,44.89
2019-03-17T15:38:47.273Z,45.21
2019-03-17T15:41:26.635Z,45.08
2019-03-17T15:44:05.390Z,45.16
2019-03-17T15:46:39.867Z,45.19
2019-03-17T15:49:14.529Z,45.27
2019-03-17T15:51:48.081Z,45.31
2019-03-17T15:54:21.749Z,45.47
2019-03-17T15:56:55.674Z,45.49
2019-03-17T15:59:28.977Z,45.92
2019-03-17T16:02:03.695Z,46.14
2019-03-17T16:04:37.245Z,46.34
2019-03-17T16:07:10.729Z,46.92
2019-03-17T16:09:44.483Z,47.02
2019-03-17T16:12:17.962Z,46.97
2019-03-17T16:14:51.567Z,47.45
2019-03-17T16:17:25.133Z,47.58
2019-03-17T16:19:58.751Z,47.85
2019-03-17T16:22:32.296Z,48.11
2019-03-17T16:25:07.310Z,48.67
2019-03-17T16:27:40.747Z,49.02
2019-03-17T16:30:20.474Z,48.96
2019-03-17T16:32:57.038Z,48.76
2019-03-17T16:35:30.597Z,49.16
2019-03-17T16:38:04.140Z,49.45
2019-03-17T16:40:43.210Z,49.74
2019-03-17T16:43:20.477Z,50.07
2019-03-17T16:46:20.836Z,50.16
2019-03-17T17:10:07.333Z,51.18
2019-03-17T17:20:17.611Z,51.91
2019-03-17T17:26:36.535Z,51.39
2019-03-17T17:29:10.232Z,51.18
2019-03-17T17:32:00.037Z,50.97
2019-03-17T17:34:33.291Z,51.13
2019-03-17T17:37:06.608Z,51.41
2019-03-17T17:39:39.817Z,51.67
2019-03-17T17:42:29.305Z,52.01
2019-03-17T17:45:10.206Z,52.54
2019-03-17T17:47:44.548Z,52.94
2019-03-17T17:50:18.599Z,53.07
2019-03-17T17:52:51.969Z,54.01
2019-03-17T17:55:25.210Z,54.46
2019-03-17T17:57:58.485Z,55.23
2019-03-17T18:00:35.277Z,55.85
2019-03-17T18:03:09.701Z,56.44
2019-03-17T18:05:43.198Z,56.12
2019-03-17T18:08:16.647Z,57.43
2019-03-17T18:10:50.021Z,57.21
2019-03-17T18:13:23.319Z,57.00
2019-03-17T18:15:56.617Z,57.42
2019-03-17T18:18:29.859Z,57.23
2019-03-17T18:21:03.477Z,57.64
2019-03-17T18:23:36.848Z,57.67
2019-03-17T18:26:10.451Z,57.77
2019-03-17T18:28:43.844Z,58.01
2019-03-17T18:32:58.898Z,58.31
2019-03-17T18:55:20.778Z,53.19
2019-03-17T19:02:38.749Z,56.77
2019-03-17T19:06:34.140Z,58.17
2019-03-17T19:09:35.224Z,58.63
2019-03-17T19:12:12.796Z,59.83
2019-03-17T19:14:46.613Z,60.52
2019-03-17T19:17:22.095Z,61.88
2019-03-17T19:20:02.459Z,62.10
2019-03-17T19:22:36.799Z,52.61
2019-03-17T19:25:18.755Z,48.84
2019-03-17T19:27:52.774Z,51.16
2019-03-17T19:30:27.284Z,53.03
2019-03-17T19:33:01.281Z,54.50
2019-03-17T19:35:35.165Z,55.30
2019-03-17T19:38:09.622Z,56.46
2019-03-17T19:40:45.447Z,57.39
2019-03-17T19:43:19.047Z,58.06
2019-03-17T19:45:52.757Z,59.31
2019-03-17T19:48:27.432Z,59.92
2019-03-17T19:51:01.588Z,60.91
2019-03-17T19:53:35.420Z,61.48
2019-03-17T19:56:08.923Z,62.49
2019-03-17T19:58:43.443Z,52.99
2019-03-17T20:01:19.900Z,48.97
2019-03-17T20:03:54.450Z,51.29
2019-03-17T20:06:28.144Z,52.71
2019-03-17T20:09:02.260Z,54.38
2019-03-17T20:11:36.857Z,55.85
2019-03-17T20:14:10.691Z,56.79
2019-03-17T20:16:44.461Z,57.83
2019-03-17T20:19:17.907Z,58.57
2019-03-17T20:21:51.490Z,59.75
2019-03-17T20:24:25.160Z,60.41
2019-03-17T20:26:58.737Z,61.22
2019-03-17T20:29:32.417Z,61.97
2019-03-17T20:32:06.168Z,62.29
2019-03-17T20:34:40.017Z,52.49
2019-03-17T20:37:13.543Z,48.47
2019-03-17T20:39:47.091Z,50.84
2019-03-17T20:42:21.070Z,53.00
2019-03-17T20:44:55.521Z,54.36
2019-03-17T20:47:29.070Z,55.72
2019-03-17T20:50:02.660Z,56.96
2019-03-17T20:52:36.140Z,57.80
2019-03-17T20:55:09.892Z,58.92
2019-03-17T20:57:43.395Z,59.75
2019-03-17T21:00:17.003Z,60.27
2019-03-17T21:02:50.928Z,60.75
2019-03-17T21:05:24.443Z,61.17
2019-03-17T21:07:58.463Z,62.27
2019-03-17T21:10:32.121Z,62.50
2019-03-17T21:13:09.390Z,53.15
2019-03-17T21:15:42.520Z,48.72
2019-03-17T21:18:15.701Z,50.98
2019-03-17T21:20:48.861Z,53.06
2019-03-17T21:23:22.106Z,54.78
2019-03-17T21:25:55.297Z,56.05
2019-03-17T21:28:28.560Z,57.25
2019-03-17T21:31:01.948Z,58.28
2019-03-17T21:33:35.120Z,59.26
2019-03-17T21:36:08.316Z,60.15
2019-03-17T21:38:41.465Z,60.78
2019-03-17T21:41:14.586Z,62.00
2019-03-17T21:43:58.932Z,62.96
2019-03-17T21:46:22.547Z,53.15
2019-03-17T21:48:57.232Z,48.63
2019-03-17T21:51:30.384Z,50.98
2019-03-17T21:54:03.531Z,52.97
2019-03-17T21:56:36.664Z,54.54
2019-03-17T21:59:09.806Z,55.71
2019-03-17T22:01:42.930Z,57.16
2019-03-17T22:04:16.160Z,57.97
2019-03-17T22:06:49.369Z,59.09
2019-03-17T22:09:22.471Z,60.09
2019-03-17T22:11:56.511Z,61.04
2019-03-17T22:14:29.650Z,61.32
2019-03-17T22:17:02.767Z,62.55
2019-03-17T22:19:35.921Z,62.43
2019-03-17T22:22:09.205Z,52.08
2019-03-17T22:24:42.394Z,50.64
2019-03-17T22:27:15.535Z,52.60
2019-03-17T22:29:49.056Z,54.22
2019-03-17T22:32:22.531Z,55.99
2019-03-17T22:34:55.686Z,57.24
2019-03-17T22:37:28.874Z,58.42
2019-03-17T22:40:02.092Z,59.39
2019-03-17T22:42:35.264Z,60.40
2019-03-17T22:45:09.069Z,61.03
2019-03-17T22:47:42.242Z,62.25
2019-03-17T22:50:15.480Z,62.82
2019-03-17T22:52:48.614Z,52.05
2019-03-17T22:55:21.769Z,48.55
2019-03-17T22:57:54.952Z,50.91
2019-03-17T23:00:44.785Z,53.26
2019-03-17T23:03:19.119Z,54.95
2019-03-17T23:05:52.407Z,56.43
2019-03-17T23:08:25.748Z,57.54
2019-03-17T23:10:59.090Z,58.65
2019-03-17T23:13:32.565Z,59.50
2019-03-17T23:16:05.830Z,60.54
2019-03-17T23:18:39.151Z,61.29
2019-03-17T23:21:12.767Z,62.09
2019-03-17T23:23:46.917Z,62.59
2019-03-17T23:26:20.201Z,52.19
2019-03-17T23:28:53.511Z,48.90
2019-03-17T23:31:26.753Z,51.19
2019-03-17T23:34:00.131Z,53.23
2019-03-17T23:36:33.410Z,55.15
2019-03-17T23:39:07.940Z,56.34
2019-03-17T23:41:41.227Z,57.55
2019-03-17T23:44:14.608Z,58.56
2019-03-17T23:46:47.886Z,59.57
2019-03-17T23:49:21.311Z,60.44
2019-03-17T23:51:55.672Z,60.75
2019-03-17T23:54:29.167Z,61.64
2019-03-17T23:57:02.474Z,62.16
2019-03-17T23:59:36.028Z,62.79
